<?xml version="1.0" encoding="UTF-8" standalone="no" ?>
<gpx xmlns="http://www.topografix.com/GPX/1/1" xmlns:xsi="http://www.w3.org/2001/XMLSchema-instance" xsi:schemaLocation="http://www.topografix.com/GPX/1/1 http://www.topografix.com/GPX/1/1/gpx.xsd" version="1.1" creator="VisuGPX - https://www.visugpx.com">
  <metadata>
    <name>Mont Rachais March 14, 2014</name>
  </metadata>
  <trk>
    <name><![CDATA[ACTIVE LOG054201]]></name>
    <trkseg>
      <trkpt lat="45.19701" lon="5.73975">
        <ele>215.037</ele>
        <time>2021-03-14T04:42:01Z</time>
      </trkpt>
      <trkpt lat="45.19697" lon="5.73973">
        <ele>218.321</ele>
        <time>2021-03-14T04:42:09Z</time>
      </trkpt>
      <trkpt lat="45.19693" lon="5.73971">
        <ele>222.441</ele>
        <time>2021-03-14T04:42:12Z</time>
      </trkpt>
      <trkpt lat="45.19696" lon="5.73971">
        <ele>226.444</ele>
        <time>2021-03-14T04:42:15Z</time>
      </trkpt>
      <trkpt lat="45.19698" lon="5.7397">
        <ele>229.966</ele>
        <time>2021-03-14T04:42:18Z</time>
      </trkpt>
      <trkpt lat="45.19697" lon="5.73968">
        <ele>232.971</ele>
        <time>2021-03-14T04:42:21Z</time>
      </trkpt>
      <trkpt lat="45.19701" lon="5.73963">
        <ele>236.002</ele>
        <time>2021-03-14T04:42:25Z</time>
      </trkpt>
      <trkpt lat="45.19707" lon="5.7396">
        <ele>239.093</ele>
        <time>2021-03-14T04:42:29Z</time>
      </trkpt>
      <trkpt lat="45.1971" lon="5.7396">
        <ele>242.285</ele>
        <time>2021-03-14T04:42:34Z</time>
      </trkpt>
      <trkpt lat="45.1971" lon="5.73961">
        <ele>243.969</ele>
        <time>2021-03-14T04:42:37Z</time>
      </trkpt>
      <trkpt lat="45.19711" lon="5.73961">
        <ele>245.317</ele>
        <time>2021-03-14T04:42:40Z</time>
      </trkpt>
      <trkpt lat="45.19711" lon="5.73961">
        <ele>246.489</ele>
        <time>2021-03-14T04:42:42Z</time>
      </trkpt>
      <trkpt lat="45.19705" lon="5.73962">
        <ele>247.463</ele>
        <time>2021-03-14T04:42:44Z</time>
      </trkpt>
      <trkpt lat="45.19684" lon="5.73959">
        <ele>248.508</ele>
        <time>2021-03-14T04:42:53Z</time>
      </trkpt>
      <trkpt lat="45.19687" lon="5.73958">
        <ele>248.826</ele>
        <time>2021-03-14T04:43:12Z</time>
      </trkpt>
    </trkseg>
  </trk>
</gpx>